sensor_id;sensor_type;location;lat;lon;timestamp;pressure;altitude;pressure_sealevel;temperature;humidity
26775;BME280;14362;51.902;7.626;2023-02-28T00:01:34;102482.50;;;-0.30;100.00
26775;BME280;14362;51.902;7.626;2023-02-28T00:05:35;102479.78;;;-0.30;100.00
26775;BME280;14362;51.902;7.626;2023-02-28T00:09:38;102484.38;;;-0.31;100.00
26775;BME280;14362;51.902;7.626;2023-02-28T00:13:41;102483.13;;;-0.35;100.00
26775;BME280;14362;51.902;7.626;2023-02-28T00:17:43;102486.50;;;-0.33;100.00
26775;BME280;14362;51.902;7.626;2023-02-28T00:21:44;102484.16;;;-0.36;100.00
26775;BME280;14362;51.902;7.626;2023-02-28T00:25:48;102482.06;;;-0.40;100.00
26775;BME280;14362;51.902;7.626;2023-02-28T00:29:49;102484.41;;;-0.44;100.00
26775;BME280;14362;51.902;7.626;2023-02-28T00:33:51;102481.66;;;-0.44;100.00
26775;BME280;14362;51.902;7.626;2023-02-28T00:37:52;102475.13;;;-0.49;100.00
26775;BME280;14362;51.902;7.626;2023-02-28T00:41:55;102481.66;;;-0.50;100.00
26775;BME280;14362;51.902;7.626;2023-02-28T00:45:56;102478.28;;;-0.59;100.00
26775;BME280;14362;51.902;7.626;2023-02-28T00:49:58;102482.50;;;-0.63;100.00
26775;BME280;14362;51.902;7.626;2023-02-28T00:53:59;102478.06;;;-0.64;100.00
26775;BME280;14362;51.902;7.626;2023-02-28T00:58:02;102478.91;;;-0.70;100.00
26775;BME280;14362;51.902;7.626;2023-02-28T01:02:03;102483.09;;;-0.74;100.00
26775;BME280;14362;51.902;7.626;2023-02-28T01:06:05;102480.56;;;-0.75;100.00
26775;BME280;14362;51.902;7.626;2023-02-28T01:10:07;102478.88;;;-0.83;100.00
26775;BME280;14362;51.902;7.626;2023-02-28T01:14:12;102481.41;;;-0.88;100.00
26775;BME280;14362;51.902;7.626;2023-02-28T01:18:13;102484.53;;;-0.91;100.00
26775;BME280;14362;51.902;7.626;2023-02-28T01:22:15;102476.13;;;-0.96;100.00
26775;BME280;14362;51.902;7.626;2023-02-28T01:26:18;102473.34;;;-1.02;100.00
26775;BME280;14362;51.902;7.626;2023-02-28T01:30:21;102466.63;;;-1.00;100.00
26775;BME280;14362;51.902;7.626;2023-02-28T01:34:22;102467.88;;;-1.02;100.00
26775;BME280;14362;51.902;7.626;2023-02-28T01:38:24;102464.09;;;-1.07;100.00
26775;BME280;14362;51.902;7.626;2023-02-28T01:42:25;102459.03;;;-1.10;100.00
26775;BME280;14362;51.902;7.626;2023-02-28T01:46:28;102459.00;;;-1.17;100.00
26775;BME280;14362;51.902;7.626;2023-02-28T01:50:33;102459.88;;;-1.16;100.00
26775;BME280;14362;51.902;7.626;2023-02-28T01:54:35;102461.97;;;-1.12;100.00
26775;BME280;14362;51.902;7.626;2023-02-28T01:58:37;102459.03;;;-1.10;100.00
26775;BME280;14362;51.902;7.626;2023-02-28T02:02:41;102459.66;;;-1.15;100.00
26775;BME280;14362;51.902;7.626;2023-02-28T02:06:45;102463.84;;;-1.19;100.00
26775;BME280;14362;51.902;7.626;2023-02-28T02:10:50;102461.72;;;-1.23;100.00
26775;BME280;14362;51.902;7.626;2023-02-28T02:15:00;102454.16;;;-1.21;100.00
26775;BME280;14362;51.902;7.626;2023-02-28T02:19:15;102457.53;;;-1.26;100.00
26775;BME280;14362;51.902;7.626;2023-02-28T02:24:03;102447.41;;;-1.32;100.00
26775;BME280;14362;51.902;7.626;2023-02-28T02:37:24;102466.94;;;-1.41;100.00
26775;BME280;14362;51.902;7.626;2023-02-28T02:41:35;102466.03;;;-1.48;100.00
26775;BME280;14362;51.902;7.626;2023-02-28T02:45:42;102460.19;;;-1.45;100.00
26775;BME280;14362;51.902;7.626;2023-02-28T02:49:49;102458.50;;;-1.46;100.00
26775;BME280;14362;51.902;7.626;2023-02-28T02:53:58;102456.78;;;-1.54;100.00
26775;BME280;14362;51.902;7.626;2023-02-28T02:58:04;102461.41;;;-1.54;100.00
26775;BME280;14362;51.902;7.626;2023-02-28T03:02:10;102464.75;;;-1.59;100.00
26775;BME280;14362;51.902;7.626;2023-02-28T03:06:14;102465.34;;;-1.63;100.00
26775;BME280;14362;51.902;7.626;2023-02-28T03:10:31;102467.44;;;-1.65;100.00
26775;BME280;14362;51.902;7.626;2023-02-28T03:14:43;102471.19;;;-1.73;100.00
26775;BME280;14362;51.902;7.626;2023-02-28T03:18:54;102471.38;;;-1.81;100.00
26775;BME280;14362;51.902;7.626;2023-02-28T03:23:08;102471.13;;;-1.86;100.00
26775;BME280;14362;51.902;7.626;2023-02-28T03:27:17;102466.91;;;-1.88;100.00
26775;BME280;14362;51.902;7.626;2023-02-28T03:31:25;102471.50;;;-1.95;100.00
26775;BME280;14362;51.902;7.626;2023-02-28T03:35:31;102481.56;;;-1.96;100.00
26775;BME280;14362;51.902;7.626;2023-02-28T03:39:37;102481.78;;;-1.97;100.00
26775;BME280;14362;51.902;7.626;2023-02-28T03:43:46;102475.03;;;-2.01;100.00
26775;BME280;14362;51.902;7.626;2023-02-28T03:47:52;102476.94;;;-2.02;100.00
26775;BME280;14362;51.902;7.626;2023-02-28T03:51:56;102474.19;;;-2.02;100.00
26775;BME280;14362;51.902;7.626;2023-02-28T03:56:05;102479.19;;;-2.05;100.00
26775;BME280;14362;51.902;7.626;2023-02-28T04:00:13;102476.69;;;-2.06;100.00
26775;BME280;14362;51.902;7.626;2023-02-28T04:04:17;102480.44;;;-2.07;100.00
26775;BME280;14362;51.902;7.626;2023-02-28T04:08:20;102476.47;;;-2.05;100.00
26775;BME280;14362;51.902;7.626;2023-02-28T04:12:21;102481.88;;;-2.11;100.00
26775;BME280;14362;51.902;7.626;2023-02-28T04:16:24;102481.72;;;-2.10;100.00
26775;BME280;14362;51.902;7.626;2023-02-28T04:20:26;102479.56;;;-2.14;100.00
26775;BME280;14362;51.902;7.626;2023-02-28T04:24:27;102482.50;;;-2.16;100.00
26775;BME280;14362;51.902;7.626;2023-02-28T04:28:29;102481.25;;;-2.13;100.00
26775;BME280;14362;51.902;7.626;2023-02-28T04:32:32;102485.63;;;-2.19;100.00
26775;BME280;14362;51.902;7.626;2023-02-28T04:36:33;102485.44;;;-2.17;100.00
26775;BME280;14362;51.902;7.626;2023-02-28T04:40:35;102477.44;;;-2.19;100.00
26775;BME280;14362;51.902;7.626;2023-02-28T04:44:36;102488.75;;;-2.22;100.00
26775;BME280;14362;51.902;7.626;2023-02-28T04:48:40;102480.72;;;-2.30;100.00
26775;BME280;14362;51.902;7.626;2023-02-28T04:52:41;102476.03;;;-2.36;100.00
26775;BME280;14362;51.902;7.626;2023-02-28T04:56:43;102484.88;;;-2.34;100.00
26775;BME280;14362;51.902;7.626;2023-02-28T05:00:44;102484.34;;;-2.44;100.00
26775;BME280;14362;51.902;7.626;2023-02-28T05:04:47;102476.00;;;-2.42;100.00
26775;BME280;14362;51.902;7.626;2023-02-28T05:08:48;102487.34;;;-2.39;100.00
26775;BME280;14362;51.902;7.626;2023-02-28T05:12:50;102489.81;;;-2.44;100.00
26775;BME280;14362;51.902;7.626;2023-02-28T05:16:51;102496.97;;;-2.43;100.00
26775;BME280;14362;51.902;7.626;2023-02-28T05:20:54;102490.25;;;-2.47;100.00
26775;BME280;14362;51.902;7.626;2023-02-28T05:24:55;102491.50;;;-2.43;100.00
26775;BME280;14362;51.902;7.626;2023-02-28T05:28:57;102488.78;;;-2.43;100.00
26775;BME280;14362;51.902;7.626;2023-02-28T05:32:58;102490.88;;;-2.45;100.00
26775;BME280;14362;51.902;7.626;2023-02-28T05:37:01;102497.41;;;-2.46;100.00
26775;BME280;14362;51.902;7.626;2023-02-28T05:41:05;102496.53;;;-2.46;100.00
26775;BME280;14362;51.902;7.626;2023-02-28T05:45:08;102501.16;;;-2.47;100.00
26775;BME280;14362;51.902;7.626;2023-02-28T05:49:10;102503.25;;;-2.49;100.00
26775;BME280;14362;51.902;7.626;2023-02-28T05:53:13;102511.44;;;-2.49;100.00
26775;BME280;14362;51.902;7.626;2023-02-28T05:57:15;102514.56;;;-2.52;100.00
26775;BME280;14362;51.902;7.626;2023-02-28T06:01:24;102512.41;;;-2.56;100.00
26775;BME280;14362;51.902;7.626;2023-02-28T06:05:26;102520.78;;;-2.58;100.00
26775;BME280;14362;51.902;7.626;2023-02-28T06:09:29;102512.31;;;-2.63;100.00
26775;BME280;14362;51.902;7.626;2023-02-28T06:13:31;102509.22;;;-2.60;100.00
26775;BME280;14362;51.902;7.626;2023-02-28T06:17:32;102513.63;;;-2.59;100.00
26775;BME280;14362;51.902;7.626;2023-02-28T06:21:34;102508.38;;;-2.60;100.00
26775;BME280;14362;51.902;7.626;2023-02-28T06:25:37;102519.47;;;-2.62;100.00
26775;BME280;14362;51.902;7.626;2023-02-28T06:29:38;102519.31;;;-2.60;100.00
26775;BME280;14362;51.902;7.626;2023-02-28T06:33:41;102524.56;;;-2.59;100.00
26775;BME280;14362;51.902;7.626;2023-02-28T06:37:42;102513.63;;;-2.59;100.00
26775;BME280;14362;51.902;7.626;2023-02-28T06:41:46;102519.94;;;-2.58;100.00
26775;BME280;14362;51.902;7.626;2023-02-28T06:45:48;102522.31;;;-2.55;100.00
26775;BME280;14362;51.902;7.626;2023-02-28T06:49:50;102529.41;;;-2.54;100.00
26775;BME280;14362;51.902;7.626;2023-02-28T06:53:51;102528.38;;;-2.53;100.00
26775;BME280;14362;51.902;7.626;2023-02-28T06:57:54;102529.50;;;-2.48;100.00
26775;BME280;14362;51.902;7.626;2023-02-28T07:01:55;102537.28;;;-2.45;100.00
26775;BME280;14362;51.902;7.626;2023-02-28T07:05:57;102539.44;;;-2.40;100.00
26775;BME280;14362;51.902;7.626;2023-02-28T07:09:59;102548.72;;;-2.35;100.00
26775;BME280;14362;51.902;7.626;2023-02-28T07:14:02;102547.28;;;-2.31;100.00
26775;BME280;14362;51.902;7.626;2023-02-28T07:18:03;102549.22;;;-2.25;100.00
26775;BME280;14362;51.902;7.626;2023-02-28T07:22:05;102545.69;;;-2.19;100.00
26775;BME280;14362;51.902;7.626;2023-02-28T07:26:11;102556.88;;;-2.14;100.00
26775;BME280;14362;51.902;7.626;2023-02-28T07:30:16;102554.84;;;-2.05;100.00
26775;BME280;14362;51.902;7.626;2023-02-28T07:34:18;102555.75;;;-1.99;100.00
26775;BME280;14362;51.902;7.626;2023-02-28T07:38:20;102567.59;;;-1.85;100.00
26775;BME280;14362;51.902;7.626;2023-02-28T07:42:21;102561.91;;;-1.63;100.00
26775;BME280;14362;51.902;7.626;2023-02-28T07:46:25;102565.63;;;-1.36;100.00
26775;BME280;14362;51.902;7.626;2023-02-28T07:50:27;102560.31;;;-1.04;100.00
26775;BME280;14362;51.902;7.626;2023-02-28T07:54:31;102555.38;;;-0.68;100.00
26775;BME280;14362;51.902;7.626;2023-02-28T07:58:32;102546.56;;;-0.18;100.00
26775;BME280;14362;51.902;7.626;2023-02-28T08:02:35;102548.66;;;-0.14;100.00
26775;BME280;14362;51.902;7.626;2023-02-28T08:06:37;102553.72;;;0.28;100.00
26775;BME280;14362;51.902;7.626;2023-02-28T08:10:39;102552.88;;;0.34;100.00
26775;BME280;14362;51.902;7.626;2023-02-28T08:14:40;102558.28;;;0.53;100.00
26775;BME280;14362;51.902;7.626;2023-02-28T08:18:43;102552.06;;;0.84;100.00
26775;BME280;14362;51.902;7.626;2023-02-28T08:22:44;102557.50;;;0.97;100.00
26775;BME280;14362;51.902;7.626;2023-02-28T08:26:46;102558.69;;;1.13;100.00
26775;BME280;14362;51.902;7.626;2023-02-28T08:30:47;102544.63;;;1.34;96.39
26775;BME280;14362;51.902;7.626;2023-02-28T08:34:50;102552.19;;;1.45;95.50
26775;BME280;14362;51.902;7.626;2023-02-28T08:38:52;102554.22;;;1.56;91.15
26775;BME280;14362;51.902;7.626;2023-02-28T08:42:53;102549.38;;;1.83;85.62
26775;BME280;14362;51.902;7.626;2023-02-28T08:46:55;102547.91;;;1.80;89.85
26775;BME280;14362;51.902;7.626;2023-02-28T08:50:59;102548.25;;;1.90;87.89
26775;BME280;14362;51.902;7.626;2023-02-28T08:55:00;102553.66;;;2.03;80.00
26775;BME280;14362;51.902;7.626;2023-02-28T08:59:02;102554.03;;;2.31;70.54
26775;BME280;14362;51.902;7.626;2023-02-28T09:03:03;102550.16;;;2.56;65.68
26775;BME280;14362;51.902;7.626;2023-02-28T09:07:06;102559.56;;;2.67;62.22
26775;BME280;14362;51.902;7.626;2023-02-28T09:11:08;102547.03;;;2.89;61.96
26775;BME280;14362;51.902;7.626;2023-02-28T09:15:10;102555.28;;;3.06;62.57
26775;BME280;14362;51.902;7.626;2023-02-28T09:19:12;102555.50;;;3.23;61.61
26775;BME280;14362;51.902;7.626;2023-02-28T09:23:15;102560.59;;;3.37;59.65
26775;BME280;14362;51.902;7.626;2023-02-28T09:27:16;102548.78;;;3.48;57.96
26775;BME280;14362;51.902;7.626;2023-02-28T09:31:20;102544.72;;;3.62;57.05
26775;BME280;14362;51.902;7.626;2023-02-28T09:35:23;102539.72;;;3.71;55.80
26775;BME280;14362;51.902;7.626;2023-02-28T09:39:28;102545.75;;;3.79;55.13
26775;BME280;14362;51.902;7.626;2023-02-28T09:43:33;102539.19;;;3.92;53.63
26775;BME280;14362;51.902;7.626;2023-02-28T09:47:40;102543.13;;;3.84;55.28
26775;BME280;14362;51.902;7.626;2023-02-28T09:51:48;102540.88;;;4.04;53.24
26775;BME280;14362;51.902;7.626;2023-02-28T09:55:55;102535.22;;;3.99;53.23
26775;BME280;14362;51.902;7.626;2023-02-28T10:00:05;102534.28;;;4.05;53.58
26775;BME280;14362;51.902;7.626;2023-02-28T10:04:15;102544.72;;;4.14;52.06
26775;BME280;14362;51.902;7.626;2023-02-28T10:08:23;102534.91;;;4.18;52.08
26775;BME280;14362;51.902;7.626;2023-02-28T10:12:29;102542.13;;;4.31;50.95
26775;BME280;14362;51.902;7.626;2023-02-28T10:16:35;102542.47;;;4.34;51.05
26775;BME280;14362;51.902;7.626;2023-02-28T10:20:40;102535.72;;;4.30;49.56
26775;BME280;14362;51.902;7.626;2023-02-28T10:24:46;102530.00;;;4.43;50.19
26775;BME280;14362;51.902;7.626;2023-02-28T10:28:50;102525.28;;;4.55;49.89
26775;BME280;14362;51.902;7.626;2023-02-28T10:32:53;102547.59;;;4.65;47.74
26775;BME280;14362;51.902;7.626;2023-02-28T10:36:55;102536.22;;;4.50;47.51
26775;BME280;14362;51.902;7.626;2023-02-28T10:41:08;102535.84;;;4.58;47.72
26775;BME280;14362;51.902;7.626;2023-02-28T10:45:14;102532.34;;;4.74;49.20
26775;BME280;14362;51.902;7.626;2023-02-28T10:49:19;102538.63;;;4.58;48.86
26775;BME280;14362;51.902;7.626;2023-02-28T10:53:33;102541.00;;;4.55;49.50
26775;BME280;14362;51.902;7.626;2023-02-28T10:57:34;102541.59;;;4.68;49.54
26775;BME280;14362;51.902;7.626;2023-02-28T11:01:40;102533.56;;;4.78;49.62
26775;BME280;14362;51.902;7.626;2023-02-28T11:05:46;102540.38;;;4.76;49.47
26775;BME280;14362;51.902;7.626;2023-02-28T11:09:50;102525.16;;;4.73;48.36
26775;BME280;14362;51.902;7.626;2023-02-28T11:13:54;102532.94;;;4.76;49.69
26775;BME280;14362;51.902;7.626;2023-02-28T11:17:59;102520.81;;;4.77;50.18
26775;BME280;14362;51.902;7.626;2023-02-28T11:22:02;102532.69;;;4.89;49.47
26775;BME280;14362;51.902;7.626;2023-02-28T11:26:04;102536.94;;;4.69;48.69
26775;BME280;14362;51.902;7.626;2023-02-28T11:30:22;102532.84;;;4.60;49.15
26775;BME280;14362;51.902;7.626;2023-02-28T11:34:27;102519.03;;;4.60;49.20
26775;BME280;14362;51.902;7.626;2023-02-28T11:38:28;102528.03;;;4.78;48.89
26775;BME280;14362;51.902;7.626;2023-02-28T11:42:46;102508.75;;;4.95;48.85
26775;BME280;14362;51.902;7.626;2023-02-28T11:46:54;102512.81;;;5.03;49.45
26775;BME280;14362;51.902;7.626;2023-02-28T11:51:08;102497.97;;;5.21;48.95
26775;BME280;14362;51.902;7.626;2023-02-28T11:55:17;102497.06;;;5.04;49.63
26775;BME280;14362;51.902;7.626;2023-02-28T11:59:37;102490.22;;;5.06;49.61
26775;BME280;14362;51.902;7.626;2023-02-28T12:03:45;102496.44;;;5.13;49.99
26775;BME280;14362;51.902;7.626;2023-02-28T12:08:03;102470.31;;;5.21;50.22
26775;BME280;14362;51.902;7.626;2023-02-28T12:12:10;102467.16;;;5.29;50.71
26775;BME280;14362;51.902;7.626;2023-02-28T12:16:34;102465.47;;;5.28;49.58
26775;BME280;14362;51.902;7.626;2023-02-28T12:20:45;102471.84;;;5.28;50.87
26775;BME280;14362;51.902;7.626;2023-02-28T12:25:18;102464.34;;;5.57;51.28
26775;BME280;14362;51.902;7.626;2023-02-28T12:29:23;102454.41;;;5.56;51.49
26775;BME280;14362;51.902;7.626;2023-02-28T12:33:32;102441.50;;;5.61;51.98
26775;BME280;14362;51.902;7.626;2023-02-28T12:37:38;102452.34;;;5.79;51.36
26775;BME280;14362;51.902;7.626;2023-02-28T12:41:47;102445.13;;;5.78;51.65
26775;BME280;14362;51.902;7.626;2023-02-28T12:45:52;102440.78;;;5.82;52.20
26775;BME280;14362;51.902;7.626;2023-02-28T12:49:58;102433.34;;;5.71;51.58
26775;BME280;14362;51.902;7.626;2023-02-28T12:54:07;102424.13;;;5.66;52.26
26775;BME280;14362;51.902;7.626;2023-02-28T12:58:15;102428.69;;;5.72;51.81
26775;BME280;14362;51.902;7.626;2023-02-28T13:02:50;102416.00;;;5.59;52.14
26775;BME280;14362;51.902;7.626;2023-02-28T13:07:06;102427.72;;;5.50;52.49
26775;BME280;14362;51.902;7.626;2023-02-28T13:11:24;102409.88;;;5.57;53.18
26775;BME280;14362;51.902;7.626;2023-02-28T13:15:28;102400.59;;;5.63;53.97
26775;BME280;14362;51.902;7.626;2023-02-28T13:19:31;102399.19;;;5.94;51.67
26775;BME280;14362;51.902;7.626;2023-02-28T13:27:56;102397.50;;;5.93;51.04
26775;BME280;14362;51.902;7.626;2023-02-28T13:32:30;102393.66;;;5.94;50.02
26775;BME280;14362;51.902;7.626;2023-02-28T13:36:33;102397.06;;;6.01;50.85
26775;BME280;14362;51.902;7.626;2023-02-28T13:40:34;102394.56;;;5.99;50.45
26775;BME280;14362;51.902;7.626;2023-02-28T13:45:20;102389.34;;;6.03;50.67
26775;BME280;14362;51.902;7.626;2023-02-28T13:49:25;102380.25;;;6.07;51.59
26775;BME280;14362;51.902;7.626;2023-02-28T13:53:57;102375.66;;;6.34;49.29
26775;BME280;14362;51.902;7.626;2023-02-28T13:58:10;102386.84;;;6.22;49.88
26775;BME280;14362;51.902;7.626;2023-02-28T14:02:31;102383.06;;;6.28;50.54
26775;BME280;14362;51.902;7.626;2023-02-28T14:06:39;102384.22;;;6.32;50.06
26775;BME280;14362;51.902;7.626;2023-02-28T14:10:49;102379.09;;;6.41;49.95
26775;BME280;14362;51.902;7.626;2023-02-28T14:14:55;102370.72;;;6.36;50.00
26775;BME280;14362;51.902;7.626;2023-02-28T14:19:01;102376.03;;;6.64;51.01
26775;BME280;14362;51.902;7.626;2023-02-28T14:23:06;102373.09;;;6.49;50.02
26775;BME280;14362;51.902;7.626;2023-02-28T14:27:20;102384.78;;;6.34;49.79
26775;BME280;14362;51.902;7.626;2023-02-28T14:31:25;102375.66;;;6.34;49.94
26775;BME280;14362;51.902;7.626;2023-02-28T14:35:45;102367.16;;;6.40;50.48
26775;BME280;14362;51.902;7.626;2023-02-28T14:39:53;102359.31;;;6.54;50.26
26775;BME280;14362;51.902;7.626;2023-02-28T14:43:58;102358.81;;;6.62;49.74
26775;BME280;14362;51.902;7.626;2023-02-28T14:48:01;102356.72;;;6.69;49.29
26775;BME280;14362;51.902;7.626;2023-02-28T14:52:09;102353.75;;;6.54;49.20
26775;BME280;14362;51.902;7.626;2023-02-28T14:56:20;102353.47;;;6.77;49.69
26775;BME280;14362;51.902;7.626;2023-02-28T15:00:24;102339.63;;;6.77;50.90
26775;BME280;14362;51.902;7.626;2023-02-28T15:04:26;102350.13;;;6.75;50.28
26775;BME280;14362;51.902;7.626;2023-02-28T15:08:31;102345.84;;;6.62;49.92
26775;BME280;14362;51.902;7.626;2023-02-28T15:12:39;102346.06;;;6.61;50.18
26775;BME280;14362;51.902;7.626;2023-02-28T15:16:42;102347.06;;;6.50;51.03
26775;BME280;14362;51.902;7.626;2023-02-28T15:20:45;102345.03;;;6.67;52.00
26775;BME280;14362;51.902;7.626;2023-02-28T15:24:49;102351.44;;;6.46;51.77
26775;BME280;14362;51.902;7.626;2023-02-28T15:28:58;102350.63;;;6.45;51.61
26775;BME280;14362;51.902;7.626;2023-02-28T15:33:18;102356.66;;;6.42;52.56
26775;BME280;14362;51.902;7.626;2023-02-28T15:37:26;102349.19;;;6.43;52.15
26775;BME280;14362;51.902;7.626;2023-02-28T15:41:30;102346.81;;;6.30;51.92
26775;BME280;14362;51.902;7.626;2023-02-28T15:45:36;102352.34;;;6.30;52.82
26775;BME280;14362;51.902;7.626;2023-02-28T15:49:45;102352.28;;;6.25;52.45
26775;BME280;14362;51.902;7.626;2023-02-28T15:53:50;102354.06;;;6.14;53.31
26775;BME280;14362;51.902;7.626;2023-02-28T15:57:55;102357.69;;;6.15;52.23
26775;BME280;14362;51.902;7.626;2023-02-28T16:02:13;102356.78;;;6.09;51.96
26775;BME280;14362;51.902;7.626;2023-02-28T16:06:40;102355.97;;;5.76;53.24
26775;BME280;14362;51.902;7.626;2023-02-28T16:10:42;102359.50;;;5.72;54.42
26775;BME280;14362;51.902;7.626;2023-02-28T16:14:44;102361.41;;;5.71;54.72
26775;BME280;14362;51.902;7.626;2023-02-28T16:18:48;102369.97;;;5.53;56.49
26775;BME280;14362;51.902;7.626;2023-02-28T16:22:49;102368.22;;;5.47;56.00
26775;BME280;14362;51.902;7.626;2023-02-28T16:26:53;102369.63;;;5.66;55.36
26775;BME280;14362;51.902;7.626;2023-02-28T16:30:56;102365.63;;;5.41;57.26
26775;BME280;14362;51.902;7.626;2023-02-28T16:35:00;102369.91;;;5.48;56.68
26775;BME280;14362;51.902;7.626;2023-02-28T16:39:01;102370.31;;;5.24;56.99
26775;BME280;14362;51.902;7.626;2023-02-28T16:43:06;102378.34;;;5.42;55.72
26775;BME280;14362;51.902;7.626;2023-02-28T16:47:10;102376.25;;;5.16;57.06
26775;BME280;14362;51.902;7.626;2023-02-28T16:51:13;102386.13;;;5.12;58.06
26775;BME280;14362;51.902;7.626;2023-02-28T16:55:16;102383.16;;;4.86;59.54
26775;BME280;14362;51.902;7.626;2023-02-28T16:59:19;102382.59;;;4.72;60.47
26775;BME280;14362;51.902;7.626;2023-02-28T17:03:23;102388.13;;;4.72;60.78
26775;BME280;14362;51.902;7.626;2023-02-28T17:07:26;102391.47;;;4.74;61.56
26775;BME280;14362;51.902;7.626;2023-02-28T17:11:27;102399.25;;;4.49;64.24
26775;BME280;14362;51.902;7.626;2023-02-28T17:15:29;102394.72;;;4.43;64.43
26775;BME280;14362;51.902;7.626;2023-02-28T17:19:31;102389.13;;;4.55;63.91
26775;BME280;14362;51.902;7.626;2023-02-28T17:23:35;102391.47;;;4.35;66.51
26775;BME280;14362;51.902;7.626;2023-02-28T17:27:37;102390.44;;;4.13;67.71
26775;BME280;14362;51.902;7.626;2023-02-28T17:31:38;102396.56;;;4.15;68.34
26775;BME280;14362;51.902;7.626;2023-02-28T17:35:40;102398.84;;;4.06;69.54
26775;BME280;14362;51.902;7.626;2023-02-28T17:39:43;102408.22;;;3.94;70.84
26775;BME280;14362;51.902;7.626;2023-02-28T17:43:44;102403.53;;;3.83;72.38
26775;BME280;14362;51.902;7.626;2023-02-28T17:47:48;102402.69;;;3.71;74.55
26775;BME280;14362;51.902;7.626;2023-02-28T17:51:50;102404.59;;;3.59;79.76
26775;BME280;14362;51.902;7.626;2023-02-28T17:55:53;102408.91;;;3.44;81.87
26775;BME280;14362;51.902;7.626;2023-02-28T17:59:54;102403.84;;;3.29;88.12
26775;BME280;14362;51.902;7.626;2023-02-28T18:03:55;102418.53;;;3.23;88.08
26775;BME280;14362;51.902;7.626;2023-02-28T18:07:57;102418.75;;;3.10;91.23
26775;BME280;14362;51.902;7.626;2023-02-28T18:12:00;102416.94;;;3.04;91.31
26775;BME280;14362;51.902;7.626;2023-02-28T18:16:01;102432.50;;;2.99;91.32
26775;BME280;14362;51.902;7.626;2023-02-28T18:20:03;102426.16;;;2.99;90.73
26775;BME280;14362;51.902;7.626;2023-02-28T18:24:05;102435.94;;;2.95;90.82
26775;BME280;14362;51.902;7.626;2023-02-28T18:28:08;102429.63;;;3.05;87.46
26775;BME280;14362;51.902;7.626;2023-02-28T18:32:10;102433.19;;;2.95;90.18
26775;BME280;14362;51.902;7.626;2023-02-28T18:36:11;102424.63;;;2.85;92.31
26775;BME280;14362;51.902;7.626;2023-02-28T18:40:13;102428.34;;;2.79;93.20
26775;BME280;14362;51.902;7.626;2023-02-28T18:44:16;102433.19;;;2.65;97.82
26775;BME280;14362;51.902;7.626;2023-02-28T18:48:18;102430.50;;;2.59;95.88
26775;BME280;14362;51.902;7.626;2023-02-28T18:52:19;102427.69;;;2.47;99.25
26775;BME280;14362;51.902;7.626;2023-02-28T18:56:22;102427.09;;;2.45;98.14
26775;BME280;14362;51.902;7.626;2023-02-28T19:00:25;102433.13;;;2.36;100.00
26775;BME280;14362;51.902;7.626;2023-02-28T19:04:27;102425.69;;;2.36;99.25
26775;BME280;14362;51.902;7.626;2023-02-28T19:08:28;102424.41;;;2.21;100.00
26775;BME280;14362;51.902;7.626;2023-02-28T19:12:32;102427.53;;;2.06;100.00
26775;BME280;14362;51.902;7.626;2023-02-28T19:16:36;102426.81;;;1.93;100.00
26775;BME280;14362;51.902;7.626;2023-02-28T19:20:37;102432.78;;;1.90;100.00
26775;BME280;14362;51.902;7.626;2023-02-28T19:24:39;102428.75;;;1.93;100.00
26775;BME280;14362;51.902;7.626;2023-02-28T19:28:40;102424.16;;;1.87;100.00
26775;BME280;14362;51.902;7.626;2023-02-28T19:32:43;102419.63;;;1.74;100.00
26775;BME280;14362;51.902;7.626;2023-02-28T19:36:45;102424.34;;;1.67;100.00
26775;BME280;14362;51.902;7.626;2023-02-28T19:40:46;102429.88;;;1.61;100.00
26775;BME280;14362;51.902;7.626;2023-02-28T19:44:48;102433.72;;;1.60;100.00
26775;BME280;14362;51.902;7.626;2023-02-28T19:48:53;102432.69;;;1.54;100.00
26775;BME280;14362;51.902;7.626;2023-02-28T19:52:54;102437.25;;;1.42;100.00
26775;BME280;14362;51.902;7.626;2023-02-28T19:56:56;102445.09;;;1.39;100.00
26775;BME280;14362;51.902;7.626;2023-02-28T20:00:57;102440.09;;;1.29;100.00
26775;BME280;14362;51.902;7.626;2023-02-28T20:05:01;102435.34;;;1.12;100.00
26775;BME280;14362;51.902;7.626;2023-02-28T20:09:03;102448.69;;;1.08;100.00
26775;BME280;14362;51.902;7.626;2023-02-28T20:13:04;102442.63;;;1.00;100.00
26775;BME280;14362;51.902;7.626;2023-02-28T20:17:06;102441.13;;;0.98;100.00
26775;BME280;14362;51.902;7.626;2023-02-28T20:21:10;102433.81;;;0.92;100.00
26775;BME280;14362;51.902;7.626;2023-02-28T20:25:11;102432.38;;;0.83;100.00
26775;BME280;14362;51.902;7.626;2023-02-28T20:29:13;102441.91;;;0.80;100.00
26775;BME280;14362;51.902;7.626;2023-02-28T20:33:15;102448.25;;;0.74;100.00
26775;BME280;14362;51.902;7.626;2023-02-28T20:37:17;102435.19;;;0.70;100.00
26775;BME280;14362;51.902;7.626;2023-02-28T20:41:20;102444.28;;;0.64;100.00
26775;BME280;14362;51.902;7.626;2023-02-28T20:45:21;102442.22;;;0.59;100.00
26775;BME280;14362;51.902;7.626;2023-02-28T20:49:23;102439.69;;;0.51;100.00
26775;BME280;14362;51.902;7.626;2023-02-28T20:53:27;102448.59;;;0.47;100.00
26775;BME280;14362;51.902;7.626;2023-02-28T20:57:29;102448.00;;;0.38;100.00
26775;BME280;14362;51.902;7.626;2023-02-28T21:01:30;102461.09;;;0.30;100.00
26775;BME280;14362;51.902;7.626;2023-02-28T21:05:32;102467.44;;;0.24;100.00
26775;BME280;14362;51.902;7.626;2023-02-28T21:09:34;102476.53;;;0.18;100.00
26775;BME280;14362;51.902;7.626;2023-02-28T21:13:36;102471.47;;;0.15;100.00
26775;BME280;14362;51.902;7.626;2023-02-28T21:17:38;102469.16;;;0.12;100.00
26775;BME280;14362;51.902;7.626;2023-02-28T21:21:41;102467.47;;;0.11;100.00
26775;BME280;14362;51.902;7.626;2023-02-28T21:25:44;102474.00;;;0.10;100.00
26775;BME280;14362;51.902;7.626;2023-02-28T21:29:46;102471.50;;;0.08;100.00
26775;BME280;14362;51.902;7.626;2023-02-28T21:33:48;102476.13;;;0.08;100.00